createdAt,value
2019-01-23T00:01:51.955Z,99349.20
2019-01-23T00:04:41.667Z,99355.30
2019-01-23T00:07:31.762Z,99352.18
2019-01-23T00:10:21.160Z,99357.59
2019-01-23T00:13:11.252Z,99343.43
2019-01-23T00:16:01.402Z,99346.20
2019-01-23T00:18:51.395Z,99348.34
2019-01-23T00:21:41.456Z,99344.38
2019-01-23T00:24:31.019Z,99342.88
2019-01-23T00:27:20.712Z,99339.59
2019-01-23T00:30:10.802Z,99335.76
2019-01-23T00:33:00.779Z,99336.58
2019-01-23T00:35:50.573Z,99339.35
2019-01-23T00:38:40.232Z,99333.91
2019-01-23T00:41:30.511Z,99340.48
2019-01-23T00:44:21.611Z,99331.56
2019-01-23T00:47:11.800Z,99331.08
2019-01-23T00:50:01.270Z,99328.44
2019-01-23T00:52:50.920Z,99311.65
2019-01-23T00:55:40.978Z,99311.95
2019-01-23T00:58:30.768Z,99313.27
2019-01-23T01:01:20.557Z,99306.98
2019-01-23T01:04:10.514Z,99306.98
2019-01-23T01:07:00.894Z,99309.25
2019-01-23T01:09:50.836Z,99311.56
2019-01-23T01:12:41.013Z,99307.57
2019-01-23T01:15:31.141Z,99304.75
2019-01-23T01:18:21.130Z,99302.11
2019-01-23T01:21:11.232Z,99303.91
2019-01-23T01:24:01.972Z,99297.00
2019-01-23T01:26:51.987Z,99294.67
2019-01-23T01:29:42.017Z,99286.11
2019-01-23T01:32:32.126Z,99286.76
2019-01-23T01:35:22.469Z,99285.26
2019-01-23T01:38:12.630Z,99286.41
2019-01-23T01:41:02.179Z,99285.42
2019-01-23T01:43:51.834Z,99282.80
2019-01-23T01:46:41.689Z,99283.09
2019-01-23T01:49:31.638Z,99275.55
2019-01-23T01:52:21.643Z,99272.73
2019-01-23T01:55:12.322Z,99270.09
2019-01-23T01:58:03.418Z,99257.72
2019-01-23T02:00:53.572Z,99263.33
2019-01-23T02:03:43.402Z,99257.05
2019-01-23T02:06:32.842Z,99250.47
2019-01-23T02:09:22.756Z,99250.64
2019-01-23T02:12:12.703Z,99248.48
2019-01-23T02:15:02.434Z,99246.52
2019-01-23T02:17:52.611Z,99231.55
2019-01-23T02:20:42.599Z,99235.96
2019-01-23T02:23:32.769Z,99233.81
2019-01-23T02:26:22.218Z,99224.12
2019-01-23T02:29:12.292Z,99218.85
2019-01-23T02:32:02.660Z,99210.91
2019-01-23T02:34:52.733Z,99215.86
2019-01-23T02:37:42.186Z,99213.70
2019-01-23T02:40:41.266Z,99212.56
2019-01-23T02:43:31.253Z,99211.24
2019-01-23T02:46:21.043Z,99206.77
2019-01-23T02:49:10.829Z,99209.58
2019-01-23T02:52:00.886Z,99213.83
2019-01-23T02:54:51.051Z,99213.69
2019-01-23T02:57:40.904Z,99211.36
2019-01-23T03:00:30.605Z,99200.00
2019-01-23T03:03:20.425Z,99203.15
2019-01-23T03:06:11.865Z,99196.57
2019-01-23T03:09:01.659Z,99199.50
2019-01-23T03:11:53.437Z,99196.34
2019-01-23T03:14:44.115Z,99192.91
2019-01-23T03:17:33.861Z,99194.06
2019-01-23T03:20:24.167Z,99191.08
2019-01-23T03:23:14.583Z,99193.22
2019-01-23T03:26:05.212Z,99196.02
2019-01-23T03:28:55.234Z,99192.91
2019-01-23T03:31:45.470Z,99184.18
2019-01-23T03:34:36.675Z,99185.80
2019-01-23T03:37:26.451Z,99182.02
2019-01-23T03:40:19.354Z,99192.91
2019-01-23T03:43:09.169Z,99187.78
2019-01-23T03:45:59.315Z,99193.05
2019-01-23T03:48:49.042Z,99190.77
2019-01-23T03:51:39.197Z,99190.28
2019-01-23T03:54:29.094Z,99191.55
2019-01-23T03:57:19.713Z,99193.37
2019-01-23T04:00:18.451Z,99188.06
2019-01-23T04:03:08.447Z,99187.93
2019-01-23T04:05:57.962Z,99186.10
2019-01-23T04:08:47.944Z,99180.70
2019-01-23T04:11:37.960Z,99180.17
2019-01-23T04:14:28.203Z,99177.55
2019-01-23T04:17:17.908Z,99179.20
2019-01-23T04:20:12.636Z,99176.58
2019-01-23T04:23:04.067Z,99175.56
2019-01-23T04:25:53.902Z,99165.52
2019-01-23T04:28:43.698Z,99165.70
2019-01-23T04:31:33.899Z,99169.81
2019-01-23T04:34:23.703Z,99160.11
2019-01-23T04:37:13.789Z,99159.41
2019-01-23T04:40:03.814Z,99162.58
2019-01-23T04:42:53.979Z,99160.77
2019-01-23T04:45:43.865Z,99149.91
2019-01-23T04:48:33.906Z,99152.88
2019-01-23T04:51:38.878Z,99149.91
2019-01-23T04:54:28.876Z,99147.11
2019-01-23T04:57:18.401Z,99146.63
2019-01-23T05:00:10.317Z,99150.44
2019-01-23T05:03:00.111Z,99140.39
2019-01-23T05:05:50.145Z,99147.28
2019-01-23T05:08:40.344Z,99135.49
2019-01-23T05:11:30.624Z,99136.64
2019-01-23T05:14:20.344Z,99140.91
2019-01-23T05:17:10.115Z,99129.25
2019-01-23T05:20:00.130Z,99126.30
2019-01-23T05:22:49.716Z,99126.96
2019-01-23T05:25:39.778Z,99119.07
2019-01-23T05:28:29.861Z,99116.80
2019-01-23T05:31:20.003Z,99118.61
2019-01-23T05:34:10.517Z,99127.67
2019-01-23T05:37:00.567Z,99117.95
2019-01-23T05:39:50.861Z,99121.59
2019-01-23T05:42:40.645Z,99117.99
2019-01-23T05:45:30.173Z,99117.66
2019-01-23T05:48:20.182Z,99124.23
2019-01-23T05:51:10.277Z,99114.54
2019-01-23T05:54:00.108Z,99119.49
2019-01-23T05:56:50.292Z,99124.76
2019-01-23T05:59:40.437Z,99125.73
2019-01-23T06:02:30.216Z,99130.52
2019-01-23T06:05:19.711Z,99124.94
2019-01-23T06:08:09.455Z,99121.97
2019-01-23T06:10:59.063Z,99125.11
2019-01-23T06:13:48.758Z,99123.80
2019-01-23T06:16:57.785Z,99127.88
2019-01-23T06:19:47.431Z,99121.30
2019-01-23T06:22:37.870Z,98412.70
2019-01-23T06:25:27.163Z,99135.90
2019-01-23T06:28:16.859Z,99130.14
2019-01-23T06:31:07.079Z,99131.28
2019-01-23T06:33:56.776Z,99134.88
2019-01-23T06:36:46.498Z,99129.47
2019-01-23T06:39:36.091Z,99129.78
2019-01-23T06:42:25.730Z,99139.30
2019-01-23T06:45:35.029Z,99143.25
2019-01-23T06:48:24.730Z,99134.19
2019-01-23T06:51:14.736Z,99135.50
2019-01-23T06:54:04.547Z,99132.05
2019-01-23T06:56:54.734Z,99131.21
2019-01-23T06:59:44.435Z,99137.47
2019-01-23T07:02:34.601Z,99131.20
2019-01-23T07:05:24.867Z,99128.22
2019-01-23T07:08:14.499Z,99133.83
2019-01-23T07:11:04.324Z,99127.25
2019-01-23T07:13:55.000Z,99123.61
2019-01-23T07:16:45.099Z,99127.25
2019-01-23T07:19:34.679Z,99125.94
2019-01-23T07:22:24.390Z,99123.00
2019-01-23T07:25:14.640Z,99120.38
2019-01-23T07:28:06.211Z,99119.55
2019-01-23T07:30:56.125Z,99119.08
2019-01-23T07:33:46.269Z,99116.98
2019-01-23T07:36:36.295Z,99117.83
2019-01-23T07:39:26.539Z,99113.89
2019-01-23T07:42:16.493Z,99114.77
2019-01-23T07:45:06.876Z,99113.62
2019-01-23T07:47:56.692Z,99116.27
2019-01-23T07:50:46.735Z,99112.02
2019-01-23T07:53:36.275Z,99102.83
2019-01-23T07:56:25.913Z,99101.86
2019-01-23T07:59:15.666Z,99102.85
2019-01-23T08:02:06.012Z,99098.27
2019-01-23T08:04:55.812Z,99101.89
2019-01-23T08:07:45.936Z,99093.64
2019-01-23T08:10:35.594Z,99098.57
2019-01-23T08:13:25.443Z,99102.69
2019-01-23T08:16:15.510Z,99104.50
2019-01-23T08:19:05.492Z,99104.13
2019-01-23T08:21:55.326Z,99106.75
2019-01-23T08:24:45.300Z,99103.05
2019-01-23T08:27:35.319Z,99098.55
2019-01-23T08:30:25.457Z,99108.21
2019-01-23T08:33:15.350Z,99101.20
2019-01-23T08:36:05.335Z,99100.95
2019-01-23T08:38:55.140Z,99097.72
2019-01-23T08:41:45.012Z,99093.91
2019-01-23T08:44:34.977Z,99090.62
2019-01-23T08:47:24.733Z,99084.76
2019-01-23T08:50:34.047Z,99085.08
2019-01-23T08:53:24.100Z,99087.66
2019-01-23T08:56:14.127Z,99086.66
2019-01-23T08:59:04.551Z,99083.88
2019-01-23T09:01:54.528Z,99078.91
2019-01-23T09:04:44.259Z,99076.22
2019-01-23T09:07:34.420Z,99071.61
2019-01-23T09:10:24.499Z,99083.84
2019-01-23T09:13:14.190Z,99084.02
2019-01-23T09:16:04.045Z,99085.20
2019-01-23T09:18:54.394Z,99085.09
2019-01-23T09:21:44.452Z,99084.31
2019-01-23T09:24:34.147Z,99085.07
2019-01-23T09:27:23.908Z,99078.83
2019-01-23T09:30:45.259Z,99080.08
2019-01-23T09:34:20.596Z,99080.34
2019-01-23T09:37:58.518Z,99084.02
2019-01-23T09:41:21.399Z,99082.76
2019-01-23T09:44:35.115Z,99085.02
2019-01-23T09:47:36.172Z,99076.58
2019-01-23T09:50:46.316Z,99071.17
2019-01-23T09:54:10.800Z,99075.41
2019-01-23T09:57:01.772Z,99068.96
2019-01-23T09:59:51.264Z,99073.50
2019-01-23T10:02:41.405Z,99068.71
2019-01-23T10:05:30.962Z,99061.88
2019-01-23T10:08:21.221Z,99055.98
2019-01-23T10:11:11.465Z,99061.31
2019-01-23T10:14:00.883Z,99055.37
2019-01-23T10:16:50.718Z,99059.56
2019-01-23T10:19:40.582Z,99058.24
2019-01-23T10:22:42.133Z,99052.19
2019-01-23T10:25:31.951Z,99048.89
2019-01-23T10:28:21.919Z,99046.14
2019-01-23T10:31:12.110Z,99047.75
2019-01-23T10:34:01.945Z,99044.90
2019-01-23T10:36:52.122Z,99044.88
2019-01-23T10:39:42.143Z,99044.05
2019-01-23T10:42:31.710Z,99048.34
2019-01-23T10:45:22.223Z,99046.16
2019-01-23T10:48:11.958Z,99040.52
2019-01-23T10:51:01.838Z,99042.40
2019-01-23T10:53:52.108Z,99045.92
2019-01-23T10:56:42.004Z,99049.63
2019-01-23T10:59:32.069Z,99046.69
2019-01-23T11:02:21.830Z,99043.61
2019-01-23T11:05:17.362Z,99043.79
2019-01-23T11:08:08.662Z,99042.50
2019-01-23T11:10:58.659Z,99040.34
2019-01-23T11:13:48.765Z,99040.52
2019-01-23T11:16:38.690Z,99040.91
2019-01-23T11:19:29.038Z,99045.02
2019-01-23T11:22:19.397Z,99029.28
2019-01-23T11:25:10.740Z,99022.06
2019-01-23T11:28:00.298Z,99024.86
2019-01-23T11:30:50.334Z,99012.99
2019-01-23T11:33:39.877Z,99015.29
2019-01-23T11:36:29.577Z,99010.42
2019-01-23T11:39:19.978Z,99009.63
2019-01-23T11:42:10.271Z,99014.34
2019-01-23T11:44:59.916Z,99008.37
2019-01-23T11:47:50.518Z,99007.77
2019-01-23T11:50:40.391Z,99014.77
2019-01-23T11:53:30.244Z,99014.82
2019-01-23T11:56:20.328Z,99012.22
2019-01-23T11:59:10.607Z,99017.94
2019-01-23T12:02:00.717Z,99011.22
2019-01-23T12:04:50.563Z,99019.15
2019-01-23T12:07:40.517Z,99023.17
2019-01-23T12:10:30.720Z,99028.52
2019-01-23T12:13:20.247Z,99028.36
2019-01-23T12:16:12.847Z,99028.16
2019-01-23T12:19:03.116Z,99033.35
2019-01-23T12:21:52.619Z,99018.56
2019-01-23T12:24:42.674Z,99025.23
2019-01-23T12:27:33.019Z,99027.30
2019-01-23T12:30:26.738Z,99022.72
2019-01-23T12:33:16.626Z,99016.19
2019-01-23T12:36:06.225Z,99014.14
2019-01-23T12:38:55.725Z,99017.28
2019-01-23T12:41:45.594Z,99012.36
2019-01-23T12:44:35.924Z,99020.47
2019-01-23T12:47:26.915Z,99017.94
2019-01-23T12:50:23.290Z,99018.77
2019-01-23T12:53:14.559Z,99027.97
2019-01-23T12:56:04.446Z,99023.81
2019-01-23T12:58:54.295Z,99021.41
2019-01-23T13:01:44.656Z,99026.74
2019-01-23T13:04:34.921Z,99026.84
2019-01-23T13:07:25.845Z,99030.79
2019-01-23T13:10:18.805Z,99034.59
2019-01-23T13:13:08.864Z,99040.45
2019-01-23T13:15:58.931Z,99044.17
2019-01-23T13:18:50.300Z,99039.16
2019-01-23T13:21:40.437Z,99042.22
2019-01-23T13:24:30.534Z,99041.33
2019-01-23T13:27:20.020Z,99040.19
2019-01-23T13:30:13.247Z,99036.81
2019-01-23T13:33:03.179Z,99038.64
2019-01-23T13:35:53.386Z,99035.09
2019-01-23T13:38:43.114Z,99041.34
2019-01-23T13:41:33.087Z,99047.11
2019-01-23T13:44:23.316Z,99048.09
2019-01-23T13:47:13.043Z,99049.85
2019-01-23T13:50:04.536Z,99047.72
2019-01-23T13:52:54.721Z,99046.88
2019-01-23T13:55:44.358Z,99049.27
2019-01-23T13:58:34.417Z,99056.54
2019-01-23T14:01:24.854Z,99066.95
2019-01-23T14:04:14.581Z,99062.24
2019-01-23T14:07:04.710Z,99058.47
2019-01-23T14:09:55.302Z,99068.36
2019-01-23T14:12:45.476Z,99073.58
2019-01-23T14:15:37.574Z,99076.73
2019-01-23T14:18:27.837Z,99076.84
2019-01-23T14:21:17.680Z,99079.73
2019-01-23T14:24:07.630Z,99082.62
2019-01-23T14:26:57.619Z,99078.79
2019-01-23T14:29:47.432Z,99079.98
2019-01-23T14:32:37.268Z,99083.35
2019-01-23T14:35:27.583Z,99084.33
2019-01-23T14:38:17.753Z,99080.16
2019-01-23T14:41:07.464Z,99089.67
2019-01-23T14:43:57.113Z,99085.68
2019-01-23T14:46:46.905Z,99087.25
2019-01-23T14:49:37.454Z,99089.11
2019-01-23T14:52:27.417Z,99087.19
2019-01-23T14:55:17.376Z,99093.25
2019-01-23T14:58:07.545Z,99089.31
2019-01-23T15:00:58.465Z,99100.89
2019-01-23T15:03:48.901Z,99095.33
2019-01-23T15:06:38.594Z,99099.45
2019-01-23T15:09:28.428Z,99102.55
2019-01-23T15:12:18.628Z,99098.44
2019-01-23T15:15:09.269Z,99108.92
2019-01-23T15:17:59.997Z,99107.02
2019-01-23T15:20:51.272Z,99118.44
2019-01-23T15:23:41.401Z,99121.72
2019-01-23T15:26:31.333Z,99125.69
2019-01-23T15:29:21.680Z,99131.52
2019-01-23T15:32:17.264Z,99122.93
2019-01-23T15:35:03.651Z,99128.04
2019-01-23T15:37:53.396Z,99128.36
2019-01-23T15:40:44.444Z,99134.68
2019-01-23T15:43:35.176Z,99133.91
2019-01-23T15:46:25.305Z,99136.52
2019-01-23T15:49:15.352Z,99135.73
2019-01-23T15:52:05.894Z,99138.39
2019-01-23T15:54:55.963Z,99147.22
2019-01-23T15:57:46.063Z,99151.91
2019-01-23T16:00:36.463Z,99156.31
2019-01-23T16:03:25.911Z,99158.36
2019-01-23T16:06:15.919Z,99174.45
2019-01-23T16:09:08.131Z,99180.42
2019-01-23T16:11:58.609Z,99180.88
2019-01-23T16:14:49.001Z,99185.41
2019-01-23T16:17:38.885Z,99197.71
2019-01-23T16:20:28.938Z,99191.53
2019-01-23T16:23:19.241Z,99195.09
2019-01-23T16:26:09.436Z,99205.39
2019-01-23T16:28:59.566Z,99201.97
2019-01-23T16:31:49.679Z,99210.92
2019-01-23T16:34:39.751Z,99213.42
2019-01-23T16:37:29.479Z,99221.09
2019-01-23T16:40:19.464Z,99215.63
2019-01-23T16:43:09.950Z,99226.70
2019-01-23T16:45:59.996Z,99225.38
2019-01-23T16:48:50.446Z,99231.33
2019-01-23T16:51:40.485Z,99224.41
2019-01-23T16:54:31.525Z,99227.71
2019-01-23T16:57:21.525Z,99231.98
2019-01-23T17:00:16.017Z,99242.55
2019-01-23T17:03:07.469Z,99241.23
2019-01-23T17:05:57.551Z,99247.50
2019-01-23T17:08:47.772Z,99249.29
2019-01-23T17:11:38.277Z,99256.93
2019-01-23T17:14:28.967Z,99263.52
2019-01-23T17:17:19.314Z,99268.63
2019-01-23T17:20:18.220Z,99278.05
2019-01-23T17:23:09.158Z,99274.27
2019-01-23T17:25:59.580Z,99279.41
2019-01-23T17:28:49.799Z,99286.16
2019-01-23T17:31:39.867Z,99293.58
2019-01-23T17:34:30.140Z,99289.80
2019-01-23T17:37:20.742Z,99312.92
2019-01-23T17:40:14.644Z,99303.36
2019-01-23T17:43:04.993Z,99315.25
2019-01-23T17:45:55.364Z,99306.17
2019-01-23T17:48:46.392Z,99308.80
2019-01-23T17:51:36.761Z,99321.01
2019-01-23T17:54:26.901Z,99316.56
2019-01-23T17:57:17.415Z,99314.59
2019-01-23T18:00:11.082Z,99320.19
2019-01-23T18:03:01.456Z,99317.86
2019-01-23T18:05:52.241Z,99326.11
2019-01-23T18:08:42.687Z,99323.63
2019-01-23T18:11:32.986Z,99333.22
2019-01-23T18:14:23.167Z,99347.22
2019-01-23T18:17:13.750Z,99340.64
2019-01-23T18:20:05.785Z,99339.00
2019-01-23T18:22:56.301Z,99343.28
2019-01-23T18:25:46.486Z,99343.30
2019-01-23T18:28:37.317Z,99348.75
2019-01-23T18:31:46.962Z,99349.38
2019-01-23T18:35:35.595Z,99358.79
2019-01-23T18:39:06.018Z,99361.45
2019-01-23T18:42:42.939Z,99367.70
2019-01-23T18:46:01.487Z,99375.78
2019-01-23T18:49:24.743Z,99375.99
2019-01-23T18:52:15.985Z,99375.02
2019-01-23T18:55:10.192Z,99378.14
2019-01-23T18:58:01.026Z,99383.12
2019-01-23T19:00:51.657Z,99387.06
2019-01-23T19:03:43.370Z,99377.53
2019-01-23T19:06:34.174Z,99379.86
2019-01-23T19:09:24.543Z,99388.78
2019-01-23T19:12:15.416Z,99386.63
2019-01-23T19:15:09.149Z,99387.30
2019-01-23T19:17:59.894Z,99392.29
2019-01-23T19:20:50.538Z,99394.09
2019-01-23T19:23:41.310Z,99393.75
2019-01-23T19:26:32.187Z,99397.40
2019-01-23T19:29:23.056Z,99401.32
2019-01-23T19:35:06.421Z,99410.62
2019-01-23T19:37:57.084Z,99420.20
2019-01-23T19:40:50.106Z,99407.98
2019-01-23T19:43:40.877Z,99417.25
2019-01-23T19:46:31.396Z,99419.23
2019-01-23T19:49:21.742Z,99418.41
2019-01-23T19:52:12.756Z,99422.86
2019-01-23T19:55:03.033Z,99421.38
2019-01-23T19:57:54.079Z,99417.92
2019-01-23T20:00:44.234Z,99427.47
2019-01-23T20:03:34.799Z,99428.47
2019-01-23T20:06:25.355Z,99431.28
2019-01-23T20:09:16.311Z,99431.13
2019-01-23T20:12:07.576Z,99429.45
2019-01-23T20:14:58.451Z,99439.03
2019-01-23T20:17:49.699Z,99441.69
2019-01-23T20:20:40.544Z,99434.43
2019-01-23T20:23:31.234Z,99436.08
2019-01-23T20:26:21.300Z,99441.67
2019-01-23T20:29:12.213Z,99439.38
2019-01-23T20:32:02.698Z,99440.19
2019-01-23T20:34:53.037Z,99440.68
2019-01-23T20:37:43.707Z,99440.18
2019-01-23T20:40:33.347Z,99450.92
2019-01-23T20:43:23.684Z,99455.53
2019-01-23T20:46:17.261Z,99444.80
2019-01-23T20:49:08.861Z,99448.92
2019-01-23T20:51:59.623Z,99457.17
2019-01-23T20:54:50.434Z,99456.00
2019-01-23T20:57:41.332Z,99451.09
2019-01-23T21:00:33.830Z,99457.36
2019-01-23T21:03:23.918Z,99457.18
2019-01-23T21:06:14.760Z,99456.16
2019-01-23T21:09:09.024Z,99459.78
2019-01-23T21:11:59.891Z,99455.84
2019-01-23T21:14:50.403Z,99459.47
2019-01-23T21:17:40.689Z,99460.14
2019-01-23T21:20:35.419Z,99462.95
2019-01-23T21:23:27.084Z,99457.31
2019-01-23T21:26:17.411Z,99456.12
2019-01-23T21:29:07.940Z,99458.06
2019-01-23T21:31:58.576Z,99466.66
2019-01-23T21:34:49.404Z,99466.81
2019-01-23T21:37:40.266Z,99472.75
2019-01-23T21:40:33.302Z,99478.19
2019-01-23T21:43:23.722Z,99477.05
2019-01-23T21:46:14.464Z,99480.86
2019-01-23T21:49:05.204Z,99482.37
2019-01-23T21:51:55.336Z,99487.80
2019-01-23T21:54:45.244Z,99485.80
2019-01-23T21:57:35.100Z,99486.29
2019-01-23T22:00:41.949Z,99489.46
2019-01-23T22:03:31.981Z,99484.17
2019-01-23T22:06:22.380Z,99492.12
2019-01-23T22:09:12.452Z,99497.75
2019-01-23T22:12:02.458Z,99502.70
2019-01-23T22:14:52.271Z,99506.00
2019-01-23T22:17:42.546Z,99505.84
2019-01-23T22:20:32.474Z,99518.26
2019-01-23T22:23:24.027Z,99516.66
2019-01-23T22:26:13.774Z,99522.41
2019-01-23T22:29:03.504Z,99521.58
2019-01-23T22:31:53.476Z,99522.59
2019-01-23T22:34:43.211Z,99524.08
2019-01-23T22:37:33.307Z,99525.56
2019-01-23T22:40:23.690Z,99527.05
2019-01-23T22:43:15.124Z,99532.83
2019-01-23T22:46:05.921Z,99535.48
2019-01-23T22:48:55.467Z,99538.45
2019-01-23T22:51:45.330Z,99078.44
2019-01-23T22:54:35.386Z,99540.12
2019-01-23T22:57:25.393Z,99538.15
2019-01-23T23:01:19.324Z,99544.45
2019-01-23T23:04:09.435Z,99546.09
2019-01-23T23:07:00.567Z,99540.48
2019-01-23T23:09:50.720Z,99536.66
2019-01-23T23:12:40.752Z,99538.66
2019-01-23T23:15:30.809Z,99545.09
2019-01-23T23:18:20.667Z,99540.97
2019-01-23T23:21:10.533Z,99543.97
2019-01-23T23:24:00.353Z,99544.78
2019-01-23T23:26:50.325Z,99543.78
2019-01-23T23:29:41.728Z,99550.58
2019-01-23T23:32:31.882Z,99559.14
2019-01-23T23:35:24.799Z,99556.33
2019-01-23T23:38:14.723Z,99557.34
2019-01-23T23:41:04.965Z,99563.11
2019-01-23T23:43:55.178Z,99565.06
2019-01-23T23:46:45.623Z,99565.55
2019-01-23T23:49:35.351Z,99562.59
2019-01-23T23:52:25.770Z,99565.38
2019-01-23T23:55:16.481Z,99566.84
2019-01-23T23:58:06.400Z,99221.88
